Time;durP1;ratioP1;P1;durP2;ratioP2;P2;SDS_P1;SDS_P2;PMS_P1;PMS_P2;Temp;Humidity;BMP_temperature;BMP_pressure;BME280_temperature;BME280_humidity;BME280_pressure;Samples;Min_cycle;Max_cycle;Signal;HPM_P1;HPM_P2
2021/05/29 00:03:50;;;;;;;15.23;8.33;;;;;;;9.36;73.81;101185.41;5077469;57;1139013;-77
2021/05/29 00:08:56;;;;;;;14.40;8.07;;;;;;;9.41;74.19;101175.42;5077809;57;1138858;-78
2021/05/29 00:14:02;;;;;;;19.73;10.33;;;;;;;9.41;74.53;101176.75;5077870;57;1138938;-76
2021/05/29 00:19:09;;;;;;;17.23;10.53;;;;;;;9.55;75.25;101175.03;5077719;57;1141174;-77
2021/05/29 00:24:15;;;;;;;12.40;8.67;;;;;;;9.62;74.95;101179.00;5076287;57;1222217;-80
2021/05/29 00:29:20;;;;;;;14.80;10.80;;;;;;;9.58;74.70;101173.52;5098028;56;1139116;-81
2021/05/29 00:34:26;;;;;;;19.93;12.03;;;;;;;9.83;75.31;101177.61;5163276;56;1141081;-80
2021/05/29 00:39:32;;;;;;;20.75;12.60;;;;;;;9.83;75.31;101177.61;5162912;56;1141112;-80
2021/05/29 00:44:50;;;;;;;24.63;12.87;;;;;;;9.89;75.14;101181.20;5162972;56;1141198;-78
2021/05/29 00:50:00;;;;;;;20.37;12.93;;;;;;;9.91;75.06;101175.81;5162651;56;1141222;-77
2021/05/29 00:55:11;;;;;;;19.57;9.87;;;;;;;9.92;74.90;101174.88;5162745;56;1141215;-77
2021/05/29 01:00:21;;;;;;;15.83;9.93;;;;;;;9.83;74.28;101173.66;5163282;56;1138898;-77
2021/05/29 01:05:27;;;;;;;18.52;11.28;;;;;;;9.65;74.27;101173.02;5163035;56;1138900;-75
2021/05/29 01:10:34;;;;;;;19.00;10.55;;;;;;;9.60;74.83;101171.64;5162938;56;1141011;-79
2021/05/29 01:15:42;;;;;;;14.37;9.23;;;;;;;9.44;74.79;101174.39;5162668;56;1140506;-77
2021/05/29 01:20:49;;;;;;;14.83;8.50;;;;;;;9.32;75.25;101172.02;5162739;56;1138901;-75
2021/05/29 01:25:56;;;;;;;13.20;7.03;;;;;;;9.27;75.59;101173.27;5162640;56;1138636;-73
2021/05/29 01:31:08;;;;;;;12.73;7.83;;;;;;;9.21;75.54;101172.31;5160234;56;1138562;-76
2021/05/29 01:36:13;;;;;;;15.10;8.03;;;;;;;9.17;75.84;101167.69;5121831;56;1138434;-73
2021/05/29 01:41:24;;;;;;;11.67;7.50;;;;;;;9.32;76.74;101168.56;5153731;56;1139119;-78
2021/05/29 01:46:30;;;;;;;18.60;8.85;;;;;;;9.46;76.99;101169.40;5153685;56;1138377;-75
2021/05/29 01:51:36;;;;;;;18.00;9.23;;;;;;;9.57;77.08;101165.22;5153728;56;1138462;-76
2021/05/29 01:56:42;;;;;;;16.63;8.87;;;;;;;9.61;76.80;101157.49;5153678;56;1138497;-81
2021/05/29 02:01:48;;;;;;;14.17;9.13;;;;;;;9.69;76.53;101157.84;5153731;56;1138574;-77
2021/05/29 02:06:54;;;;;;;15.65;8.38;;;;;;;9.76;76.41;101158.69;5153810;56;1138606;-78
2021/05/29 02:12:00;;;;;;;19.20;10.03;;;;;;;9.76;76.09;101163.97;5153735;56;1138905;-75
2021/05/29 02:17:06;;;;;;;15.77;9.03;;;;;;;9.72;76.01;101166.42;5121861;56;1140403;-75
2021/05/29 02:22:12;;;;;;;10.70;6.77;;;;;;;9.58;75.79;101159.00;5153639;56;1138477;-79
2021/05/29 02:27:18;;;;;;;11.92;6.12;;;;;;;9.34;75.58;101160.89;5170954;56;1139132;-79
2021/05/29 02:32:25;;;;;;;7.87;6.03;;;;;;;9.05;75.46;101163.16;5155788;56;1139203;-75
2021/05/29 02:37:30;;;;;;;10.15;6.55;;;;;;;8.87;75.84;101166.44;5162899;56;1136829;-74
2021/05/29 02:42:36;;;;;;;7.60;5.70;;;;;;;8.82;76.30;101164.56;5162773;56;1138925;-74
2021/05/29 02:47:42;;;;;;;7.53;5.80;;;;;;;8.76;76.65;101171.52;5162724;56;1136959;-77
2021/05/29 02:52:47;;;;;;;10.53;6.83;;;;;;;8.63;76.75;101163.49;5162860;56;1136918;-75
2021/05/29 02:57:59;;;;;;;9.33;6.43;;;;;;;8.62;77.10;101184.20;5163261;56;1139146;-79
2021/05/29 03:03:07;;;;;;;10.43;6.10;;;;;;;8.74;77.51;101175.56;5163583;56;1136973;-76
2021/05/29 03:08:16;;;;;;;8.90;5.93;;;;;;;8.87;78.03;101171.72;5163324;56;1138907;-76
2021/05/29 03:13:22;;;;;;;10.13;6.20;;;;;;;9.00;77.96;101176.66;5163870;56;1136935;-77
2021/05/29 03:18:28;;;;;;;11.48;6.05;;;;;;;8.93;77.73;101178.42;5163259;56;1139190;-74
2021/05/29 03:23:35;;;;;;;7.53;5.37;;;;;;;8.86;78.08;101173.97;5163428;56;1139376;-76
2021/05/29 03:28:41;;;;;;;8.80;5.80;;;;;;;8.80;78.48;101171.72;5163333;56;1137018;-78
2021/05/29 03:33:47;;;;;;;11.57;6.00;;;;;;;8.78;78.79;101172.28;5165799;56;1137065;-76
2021/05/29 03:38:54;;;;;;;8.00;5.83;;;;;;;8.74;79.16;101174.23;5176855;56;1138906;-75
2021/05/29 03:44:01;;;;;;;7.03;5.27;;;;;;;8.73;79.37;101171.69;5177123;56;1136905;-77
2021/05/29 03:49:08;;;;;;;6.87;5.90;;;;;;;8.77;79.62;101175.39;5177367;56;1137053;-77
2021/05/29 03:54:13;;;;;;;11.93;6.40;;;;;;;8.81;79.82;101173.42;5177110;56;1136795;-76
2021/05/29 03:59:21;;;;;;;12.48;6.86;;;;;;;8.85;80.06;101172.30;5195369;56;1139231;-76
2021/05/29 04:04:27;;;;;;;7.62;5.67;;;;;;;8.88;80.21;101169.45;5176769;56;1138918;-77
2021/05/29 04:09:32;;;;;;;7.67;6.20;;;;;;;8.94;80.38;101170.89;5177188;56;1136930;-75
2021/05/29 04:14:38;;;;;;;8.73;5.75;;;;;;;9.02;80.45;101172.58;5177068;56;1137009;-80
2021/05/29 04:19:43;;;;;;;15.70;7.13;;;;;;;9.03;80.62;101175.59;5177080;56;1137062;-80
2021/05/29 04:24:50;;;;;;;9.10;5.97;;;;;;;9.04;80.78;101179.47;5176614;56;1139122;-75
2021/05/29 04:29:56;;;;;;;8.07;5.93;;;;;;;9.10;80.77;101179.10;5177212;56;1136791;-77
2021/05/29 04:35:03;;;;;;;9.65;6.08;;;;;;;9.14;80.75;101189.01;5174262;56;1137112;-76
2021/05/29 04:40:13;;;;;;;9.23;6.30;;;;;;;9.20;80.82;101179.37;5154007;56;1136907;-80
2021/05/29 04:45:20;;;;;;;9.37;7.20;;;;;;;9.38;81.03;101178.72;5154319;56;1137307;-77
2021/05/29 04:50:26;;;;;;;13.07;6.43;;;;;;;9.44;81.03;101179.20;5154516;56;1136786;-76
2021/05/29 04:55:32;;;;;;;9.05;6.35;;;;;;;9.47;81.27;101184.27;5153651;56;1139014;-79
2021/05/29 05:00:38;;;;;;;14.00;6.73;;;;;;;9.60;81.48;101187.48;5153918;56;1136792;-75
2021/05/29 05:05:45;;;;;;;9.17;6.83;;;;;;;9.77;81.54;101183.31;5151036;56;1138473;-78
2021/05/29 05:10:52;;;;;;;8.37;6.17;;;;;;;9.82;81.21;101174.59;5157209;55;1136434;-76
2021/05/29 05:15:58;;;;;;;12.47;7.03;;;;;;;9.87;81.36;101169.41;5140419;55;1136400;-80
2021/05/29 05:21:04;;;;;;;9.03;6.40;;;;;;;9.92;81.14;101173.55;5091393;56;1138381;-77
2021/05/29 05:26:10;;;;;;;8.93;7.00;;;;;;;9.97;81.29;101177.58;5091639;56;1136736;-74
2021/05/29 05:31:15;;;;;;;10.83;5.43;;;;;;;9.96;81.54;101181.16;5091507;56;1136281;-77
2021/05/29 05:36:23;;;;;;;7.37;6.05;;;;;;;9.94;81.98;101196.27;5084037;56;1138806;-78
2021/05/29 05:41:29;;;;;;;7.35;5.22;;;;;;;9.96;82.35;101195.70;5100552;56;1136530;-77
2021/05/29 05:46:37;;;;;;;14.83;5.30;;;;;;;9.99;82.57;101193.33;5100339;56;1137039;-79
2021/05/29 05:51:42;;;;;;;7.97;4.77;;;;;;;10.07;82.63;101195.03;5100153;56;1138491;-73
2021/05/29 05:56:48;;;;;;;5.63;4.53;;;;;;;10.10;82.83;101192.16;5100064;56;1138529;-73
2021/05/29 06:01:54;;;;;;;7.43;4.80;;;;;;;10.19;83.01;101191.14;5099898;56;1138476;-77
2021/05/29 06:07:00;;;;;;;6.47;5.65;;;;;;;10.33;83.50;101189.38;5099640;56;1138562;-72
2021/05/29 06:12:06;;;;;;;7.73;5.53;;;;;;;10.48;83.22;101193.19;5100246;56;1138566;-76
2021/05/29 06:22:35;;;;;;;;;;;;;;;10.66;82.70;101200.38;5103588;56;1138766;-75
2021/05/29 06:27:41;;;;;;;10.57;6.73;;;;;;;10.61;82.20;101200.30;5112372;56;976274;-78
2021/05/29 06:32:47;;;;;;;9.83;7.60;;;;;;;10.64;82.62;101201.42;5099283;56;1138956;-72
2021/05/29 06:38:00;;;;;;;12.33;6.37;;;;;;;10.65;82.42;101197.35;5099098;56;1139117;-73
2021/05/29 06:43:06;;;;;;;13.53;7.70;;;;;;;10.72;82.72;101204.38;5123064;57;1141260;-78
2021/05/29 06:48:14;;;;;;;11.77;7.23;;;;;;;10.78;82.54;101194.25;5123055;56;1140994;-77
2021/05/29 06:53:28;;;;;;;10.03;6.53;;;;;;;10.96;82.73;101173.63;5123555;56;1141202;-77
2021/05/29 07:03:41;;;;;;;12.37;7.03;;;;;;;11.13;82.36;101177.76;5125301;57;1138863;-78
2021/05/29 07:08:48;;;;;;;5.83;4.37;;;;;;;11.33;82.26;101185.61;5124550;56;1141364;-75
2021/05/29 07:13:53;;;;;;;9.77;6.10;;;;;;;11.46;82.04;101188.61;5124033;56;1139119;-74
2021/05/29 07:18:59;;;;;;;12.40;8.07;;;;;;;11.66;81.89;101189.02;5124180;56;1139387;-79
2021/05/29 07:24:06;;;;;;;12.13;6.03;;;;;;;11.81;81.62;101185.30;5124133;56;1141016;-75
2021/05/29 07:29:12;;;;;;;6.60;5.10;;;;;;;11.96;81.19;101197.44;5124430;57;1140972;-76
2021/05/29 07:34:18;;;;;;;9.07;5.57;;;;;;;12.04;80.27;101200.88;5124609;56;1138954;-76
2021/05/29 07:39:24;;;;;;;8.95;6.30;;;;;;;12.11;80.16;101202.10;5114872;56;1139396;-75
2021/05/29 07:44:30;;;;;;;8.53;5.45;;;;;;;12.09;79.79;101200.88;5124948;56;1138914;-78
2021/05/29 07:49:35;;;;;;;10.28;6.45;;;;;;;12.02;80.03;101198.33;5142842;56;1138915;-77
2021/05/29 07:54:42;;;;;;;7.03;5.35;;;;;;;11.95;80.17;101193.94;5124872;56;1141230;-74
2021/05/29 07:59:47;;;;;;;7.50;5.90;;;;;;;11.92;80.24;101193.30;5124567;57;1139092;-73
2021/05/29 08:04:54;;;;;;;6.27;4.57;;;;;;;11.84;80.17;101180.62;5124306;56;1138961;-75
2021/05/29 08:09:59;;;;;;;8.70;5.70;;;;;;;11.87;81.87;101173.78;5124428;56;1139002;-77
2021/05/29 08:15:08;;;;;;;8.57;5.10;;;;;;;11.98;81.78;101169.02;5124715;55;1138785;-75
2021/05/29 08:20:14;;;;;;;6.93;5.03;;;;;;;12.00;80.89;101171.08;5125011;56;1139010;-73
2021/05/29 08:25:20;;;;;;;4.30;3.90;;;;;;;12.06;81.21;101173.77;5124303;57;1139346;-75
2021/05/29 08:30:27;;;;;;;9.33;4.20;;;;;;;12.19;80.58;101171.91;5124915;57;1148084;-76
2021/05/29 08:35:32;;;;;;;6.65;3.10;;;;;;;12.38;80.86;101160.27;5124808;56;1138903;-75
2021/05/29 08:40:39;;;;;;;5.33;3.60;;;;;;;12.62;79.44;101150.48;5124779;56;1138960;-79
2021/05/29 08:45:45;;;;;;;3.87;2.73;;;;;;;12.85;79.44;101153.16;5124494;56;1139086;-76
2021/05/29 08:51:35;;;;;;;6.23;3.83;;;;;;;13.09;77.39;101157.08;5124410;57;1138928;-75
2021/05/29 08:56:01;;;;;;;2.97;2.77;;;;;;;13.19;75.18;101166.04;5099904;56;1138972;-71
2021/05/29 09:01:08;;;;;;;2.60;2.40;;;;;;;13.15;74.37;101168.08;5124847;56;1138719;-77
2021/05/29 09:06:19;;;;;;;2.53;2.33;;;;;;;13.06;75.00;101163.47;5124827;56;1138770;-78
2021/05/29 09:11:51;;;;;;;2.92;2.17;;;;;;;13.01;74.93;101163.81;5135801;56;1144667;-78
2021/05/29 09:17:13;;;;;;;2.50;2.27;;;;;;;12.97;74.17;101169.02;5117027;57;1138626;-77
2021/05/29 09:22:24;;;;;;;2.10;2.00;;;;;;;12.99;74.81;101164.41;5125142;56;1138768;-77
2021/05/29 09:27:27;;;;;;;2.30;2.10;;;;;;;13.01;74.59;101167.80;5124320;56;1138982;-77
2021/05/29 09:32:38;;;;;;;3.17;1.90;;;;;;;12.97;73.52;101169.02;5124582;56;1138884;-76
2021/05/29 09:37:44;;;;;;;4.25;3.10;;;;;;;12.87;72.56;101164.52;5124536;56;1138913;-80
2021/05/29 09:42:50;;;;;;;6.07;2.63;;;;;;;12.88;72.35;101173.69;5124489;57;1138881;-78
2021/05/29 09:48:18;;;;;;;3.57;2.63;;;;;;;12.92;73.76;101171.17;5124389;56;1138565;-74
2021/05/29 09:53:29;;;;;;;5.55;3.17;;;;;;;12.92;74.94;101172.50;5124223;56;1138914;-73
2021/05/29 09:59:03;;;;;;;5.67;3.90;;;;;;;13.00;75.37;101164.77;5123819;57;1138658;-72
2021/05/29 10:04:07;;;;;;;6.53;5.27;;;;;;;13.11;76.09;101166.63;5123401;56;1138597;-77
2021/05/29 10:09:13;;;;;;;3.70;3.40;;;;;;;13.23;76.32;101167.50;5124144;57;1138753;-77
2021/05/29 10:14:21;;;;;;;3.50;3.07;;;;;;;13.35;76.37;101162.06;5123665;56;1138957;-75
2021/05/29 10:19:27;;;;;;;4.35;3.10;;;;;;;13.38;71.39;101156.99;5126974;56;1139083;-76
2021/05/29 10:24:34;;;;;;;5.90;3.17;;;;;;;13.50;72.35;101162.66;5169029;55;1138872;-74
2021/05/29 10:29:42;;;;;;;4.80;3.40;;;;;;;13.68;72.37;101163.85;5175280;56;1138886;-75
2021/05/29 10:35:03;;;;;;;4.43;3.13;;;;;;;13.81;72.50;101161.04;5177538;56;1138931;-75
2021/05/29 10:40:27;;;;;;;4.30;3.40;;;;;;;13.76;71.93;101151.25;5037485;58;1138933;-76
2021/05/29 10:45:34;;;;;;;8.17;4.60;;;;;;;13.78;72.87;101137.36;5205039;55;1138886;-75
2021/05/29 10:56:27;;;;;;;4.73;4.30;;;;;;;13.97;72.82;101128.73;5184403;55;1139122;-77
2021/05/29 11:01:42;;;;;;;6.95;4.85;;;;;;;14.18;72.29;101132.78;5184543;55;1138897;-75
2021/05/29 11:06:57;;;;;;;10.97;6.30;;;;;;;14.32;73.45;101118.68;5183946;55;1139118;-73
2021/05/29 11:12:08;;;;;;;6.83;5.15;;;;;;;14.62;72.86;101110.44;5184538;55;1141286;-74
2021/05/29 11:17:17;;;;;;;6.87;4.20;;;;;;;14.61;71.62;101110.93;5184277;55;1138936;-77
2021/05/29 11:22:25;;;;;;;6.00;4.47;;;;;;;14.50;72.37;101108.34;5185338;55;1138922;-76
2021/05/29 11:27:34;;;;;;;6.07;3.80;;;;;;;14.49;72.58;101104.47;5184992;55;1138925;-75
2021/05/29 11:38:21;;;;;;;5.78;5.08;;;;;;;14.46;72.60;101097.59;5184902;55;1138399;-75
2021/05/29 11:43:45;;;;;;;6.10;4.63;;;;;;;14.50;72.61;101095.52;5185574;55;1138617;-74
2021/05/29 11:48:57;;;;;;;6.23;4.80;;;;;;;14.55;72.95;101090.63;5199534;55;1138614;-76
2021/05/29 11:54:11;;;;;;;7.57;4.93;;;;;;;14.52;73.43;101086.89;5211651;55;1138754;-80
2021/05/29 11:59:23;;;;;;;8.27;4.83;;;;;;;14.46;74.09;101097.59;5205306;55;1138785;-76
2021/05/29 12:04:31;;;;;;;3.00;2.50;;;;;;;14.22;74.39;101136.36;5204201;56;1139437;-78
2021/05/29 12:09:44;;;;;;;3.40;1.10;;;;;;;13.58;74.36;101130.17;5122847;56;1138690;-75
2021/05/29 12:14:49;;;;;;;1.87;1.50;;;;;;;12.76;76.82;101128.19;5141932;56;1138542;-75
2021/05/29 12:19:55;;;;;;;0.60;0.60;;;;;;;12.22;77.44;101131.39;5124685;57;1138793;-74
2021/05/29 12:25:12;;;;;;;1.40;1.30;;;;;;;11.94;78.85;101133.08;5124418;56;1138406;-78
2021/05/29 12:30:19;;;;;;;0.70;0.70;;;;;;;11.82;80.01;101116.75;5125117;57;1138347;-77
2021/05/29 12:35:39;;;;;;;5.20;2.03;;;;;;;11.80;80.12;101126.14;5124771;56;1138429;-74
2021/05/29 12:41:09;;;;;;;1.57;1.40;;;;;;;11.87;79.77;101119.45;5125055;56;1138420;-74
2021/05/29 12:46:26;;;;;;;2.53;1.53;;;;;;;12.16;80.15;101114.63;5124505;56;1138849;-77
2021/05/29 12:51:45;;;;;;;2.77;2.47;;;;;;;12.57;80.97;101110.66;5125000;56;1138500;-76
2021/05/29 12:56:55;;;;;;;2.47;2.27;;;;;;;12.99;80.56;101111.30;5123977;56;1138611;-76
2021/05/29 13:02:22;;;;;;;1.47;1.37;;;;;;;13.27;80.20;101110.03;5124922;56;1138753;-77
2021/05/29 13:07:25;;;;;;;1.00;0.95;;;;;;;13.62;80.59;101101.87;5122288;56;1139152;-76
2021/05/29 13:12:31;;;;;;;1.30;1.17;;;;;;;13.78;79.20;101093.97;5142372;56;1148259;-78
2021/05/29 13:17:37;;;;;;;2.27;1.57;;;;;;;14.07;77.83;101098.58;5086190;57;1138574;-76
2021/05/29 13:22:44;;;;;;;1.85;1.75;;;;;;;14.29;75.46;101098.98;5125106;56;1138459;-75
2021/05/29 13:27:54;;;;;;;1.63;1.33;;;;;;;14.19;71.99;101102.55;5124462;57;1138878;-75
2021/05/29 13:33:12;;;;;;;3.07;1.43;;;;;;;14.19;71.99;101102.55;5124797;56;1138407;-74
2021/05/29 13:38:19;;;;;;;3.60;1.80;;;;;;;14.30;74.82;101102.48;5124337;56;1138665;-75
2021/05/29 13:43:25;;;;;;;2.47;1.50;;;;;;;14.33;74.75;101091.10;5124540;56;1138974;-78
2021/05/29 13:48:31;;;;;;;2.23;1.50;;;;;;;14.43;75.54;101091.19;5124759;56;1139115;-77
2021/05/29 13:53:37;;;;;;;3.95;2.30;;;;;;;14.44;74.44;101092.88;5125167;56;1139105;-73
2021/05/29 13:58:43;;;;;;;1.63;1.53;;;;;;;14.33;73.49;101095.58;5124582;56;1138931;-77
2021/05/29 14:03:49;;;;;;;7.40;1.50;;;;;;;14.24;73.81;101102.50;5124131;56;1139241;-73
2021/05/29 14:08:55;;;;;;;2.63;2.43;;;;;;;14.18;74.00;101114.16;5124120;56;1138699;-76
2021/05/29 14:14:01;;;;;;;21.25;13.32;;;;;;;14.05;75.49;101125.78;5190235;55;1138370;-76
2021/05/29 14:19:08;;;;;;;102.30;62.65;;;;;;;13.96;75.84;101129.70;5210635;55;1142632;-76
2021/05/29 14:24:14;;;;;;;53.93;31.57;;;;;;;14.00;76.52;101133.80;5210445;56;1144628;-73
2021/05/29 14:29:20;;;;;;;11.07;6.90;;;;;;;14.00;77.27;101141.30;5210845;55;1143091;-75
2021/05/29 14:34:26;;;;;;;7.47;3.77;;;;;;;14.07;77.75;101156.25;5211282;55;1140469;-76
2021/05/29 14:39:32;;;;;;;39.83;16.27;;;;;;;14.07;77.71;101149.59;5211350;55;1138539;-76
2021/05/29 14:44:38;;;;;;;24.20;10.82;;;;;;;13.97;78.07;101124.74;5210634;56;1142748;-75
2021/05/29 14:49:44;;;;;;;6.10;3.50;;;;;;;13.91;78.34;101132.72;5211328;55;1149361;-75
2021/05/29 14:54:50;;;;;;;4.07;3.67;;;;;;;13.95;79.06;101138.16;5191224;55;1138573;-75
2021/05/29 14:59:56;;;;;;;3.40;2.60;;;;;;;14.12;79.15;101135.45;5139569;55;1138867;-75
2021/05/29 15:05:02;;;;;;;4.13;2.83;;;;;;;14.26;78.67;101131.16;5139578;55;1138421;-75
2021/05/29 15:10:09;;;;;;;3.93;3.53;;;;;;;14.37;78.60;101142.22;5140744;55;1138748;-75
2021/05/29 15:15:16;;;;;;;3.90;3.50;;;;;;;14.35;78.47;101147.70;5140601;55;1138766;-74
2021/05/29 15:20:22;;;;;;;3.97;3.00;;;;;;;14.46;78.58;101147.31;5142651;55;1139169;-78
2021/05/29 15:25:31;;;;;;;8.95;5.42;;;;;;;14.47;77.49;101139.69;5138714;55;1138641;-76
2021/05/29 15:30:36;;;;;;;117.10;53.83;;;;;;;14.36;76.40;101144.55;5136722;55;1138763;-72
2021/05/29 15:35:42;;;;;;;78.72;40.25;;;;;;;14.28;77.05;101146.99;5139308;55;1144967;-71
2021/05/29 15:40:49;;;;;;;414.40;170.50;;;;;;;14.11;77.43;101139.08;5140068;55;1143098;-75
2021/05/29 15:45:56;;;;;;;49.93;17.90;;;;;;;13.98;77.94;101151.21;5140111;55;1146965;-77
2021/05/29 15:51:09;;;;;;;93.40;31.53;;;;;;;13.86;78.00;101160.68;5142516;56;1143002;-77
2021/05/29 15:56:14;;;;;;;183.27;69.07;;;;;;;13.79;78.56;101155.48;5134488;56;1142835;-75
2021/05/29 16:01:23;;;;;;;41.93;18.10;;;;;;;13.73;78.68;101160.34;5132091;56;1144687;-77
2021/05/29 16:06:29;;;;;;;13.10;6.83;;;;;;;13.72;78.99;101159.98;5133786;55;1142818;-76
2021/05/29 16:11:35;;;;;;;17.47;8.50;;;;;;;13.71;79.35;101167.59;5137771;55;1141088;-75
2021/05/29 16:16:41;;;;;;;9.53;5.83;;;;;;;13.71;79.13;101166.27;5131597;55;1141073;-77
2021/05/29 16:21:47;;;;;;;54.83;31.60;;;;;;;13.74;79.37;101163.85;5132239;55;1139126;-77
2021/05/29 16:26:53;;;;;;;32.97;19.87;;;;;;;13.75;79.39;101167.36;5130173;55;1143402;-74
2021/05/29 16:31:59;;;;;;;8.60;5.43;;;;;;;13.79;79.32;101166.97;5133458;56;1143570;-78
2021/05/29 16:37:05;;;;;;;13.67;9.87;;;;;;;13.73;79.05;101169.66;5132068;56;1139219;-72
2021/05/29 16:42:11;;;;;;;11.30;7.83;;;;;;;13.68;79.15;101173.64;5004452;57;1141473;-79
2021/05/29 16:47:17;;;;;;;23.87;15.43;;;;;;;13.64;79.15;101179.67;5023049;57;1141251;-75
2021/05/29 16:52:23;;;;;;;66.63;42.83;;;;;;;13.67;79.49;101174.60;4981651;58;1143374;-73
2021/05/29 16:57:29;;;;;;;50.67;32.57;;;;;;;13.73;79.86;101183.43;4970412;57;1143142;-77
2021/05/29 17:02:35;;;;;;;19.67;14.23;;;;;;;13.80;79.49;101182.44;4951164;57;1143433;-74
2021/05/29 17:07:43;;;;;;;20.75;9.15;;;;;;;13.81;79.76;101206.73;5108216;56;1143052;-77
2021/05/29 17:12:51;;;;;;;11.08;7.10;;;;;;;13.79;79.54;101228.11;5119293;55;1141194;-73
2021/05/29 17:17:56;;;;;;;10.67;7.20;;;;;;;13.62;78.60;101224.13;5118283;56;1141209;-75
2021/05/29 17:23:02;;;;;;;25.87;14.17;;;;;;;13.46;78.39;101224.98;5119185;56;1141201;-72
2021/05/29 17:28:07;;;;;;;8.60;5.87;;;;;;;13.44;78.92;101230.08;5121200;56;1143537;-74
2021/05/29 17:33:14;;;;;;;11.33;6.57;;;;;;;13.38;78.75;101228.25;5112523;56;1139152;-73
2021/05/29 17:38:20;;;;;;;8.03;5.50;;;;;;;13.40;79.56;101228.61;5125781;55;1141064;-75
2021/05/29 17:43:26;;;;;;;72.10;36.33;;;;;;;13.41;79.15;101235.14;5137908;55;1139393;-73
2021/05/29 17:48:31;;;;;;;32.20;19.37;;;;;;;13.30;78.86;101236.44;5138693;55;1143273;-75
2021/05/29 17:53:37;;;;;;;154.43;73.17;;;;;;;13.18;78.83;101228.09;5137318;55;1143116;-73
2021/05/29 17:59:05;;;;;;;67.75;42.65;;;;;;;13.11;78.94;101232.17;5139872;56;1145253;-74
2021/05/29 18:03:51;;;;;;;78.20;45.60;;;;;;;13.15;79.60;101241.13;5137021;56;1143234;-72
2021/05/29 18:08:58;;;;;;;47.23;32.87;;;;;;;13.15;79.64;101242.93;5140769;56;1143102;-77
2021/05/29 18:14:04;;;;;;;52.23;37.50;;;;;;;13.14;80.00;101239.91;5150122;55;1143058;-74
2021/05/29 18:19:09;;;;;;;71.50;44.87;;;;;;;13.12;79.86;101248.47;5184207;55;1143259;-74
2021/05/29 18:24:15;;;;;;;34.70;21.83;;;;;;;13.04;79.57;101263.65;5183685;55;1143269;-73
2021/05/29 18:29:21;;;;;;;52.97;27.27;;;;;;;12.98;79.84;101266.79;5183737;55;1143329;-78
2021/05/29 18:34:27;;;;;;;54.53;26.37;;;;;;;13.01;80.14;101275.34;5183108;55;1143548;-74
2021/05/29 18:39:33;;;;;;;35.87;19.77;;;;;;;13.00;79.93;101277.63;5184080;55;1143284;-74
2021/05/29 18:44:39;;;;;;;33.57;18.63;;;;;;;12.95;80.33;101281.14;5179532;55;1143249;-73
2021/05/29 18:49:45;;;;;;;38.90;21.37;;;;;;;12.94;80.38;101286.08;5098479;56;1143518;-73
2021/05/29 18:54:51;;;;;;;30.60;16.32;;;;;;;12.92;80.29;101298.62;5104268;55;1143218;-78
2021/05/29 19:05:27;;;;;;;;;;;;;;;12.87;80.41;101306.07;5215532;55;1140598;-77
2021/05/29 19:10:27;;;;;;;20.03;8.97;;;;;;;12.75;80.11;101318.09;5223712;55;975879;-80
2021/05/29 19:15:34;;;;;;;22.97;10.37;;;;;;;12.66;80.37;101327.11;5211893;55;1139112;-78
2021/05/29 19:20:39;;;;;;;20.03;10.73;;;;;;;12.67;80.44;101331.94;5167193;55;1142949;-78
2021/05/29 19:25:51;;;;;;;17.15;9.60;;;;;;;12.64;80.35;101331.67;5167877;56;1142926;-82
2021/05/29 19:30:53;;;;;;;18.45;8.25;;;;;;;12.56;80.22;101337.16;5167361;56;1140697;-74
2021/05/29 19:41:29;;;;;;;20.57;9.78;;;;;;;12.52;79.99;101347.66;5165542;55;1142801;-79
2021/05/29 19:46:53;;;;;;;56.10;18.20;;;;;;;12.49;79.59;101348.72;5166298;55;1141251;-76
2021/05/29 20:13:09;;;;;;;58.48;29.75;;;;;;;12.28;79.17;101359.05;5012980;57;1143107;-78
2021/05/29 20:23:45;;;;;;;26.45;15.15;;;;;;;12.14;78.46;101369.80;5035575;57;1143048;-78
2021/05/29 20:28:44;;;;;;;24.72;17.02;;;;;;;12.01;78.01;101366.79;5050008;57;1143147;-75
2021/05/29 20:38:55;;;;;;;57.13;35.60;;;;;;;11.84;78.39;101374.59;4951396;58;1143430;-76
2021/05/29 20:44:02;;;;;;;41.68;22.90;;;;;;;11.79;78.47;101372.72;5001829;57;1143076;-79
2021/05/29 20:49:07;;;;;;;40.10;22.37;;;;;;;11.70;77.75;101375.98;5003498;57;1143213;-78
2021/05/29 20:54:15;;;;;;;23.17;13.40;;;;;;;11.58;77.79;101370.58;5003586;57;1143537;-79
2021/05/29 20:59:23;;;;;;;26.43;14.70;;;;;;;11.51;77.52;101368.44;5003692;57;1143045;-76
2021/05/29 21:04:33;;;;;;;24.20;12.80;;;;;;;11.42;77.88;101384.48;4986777;57;1143145;-79
2021/05/29 21:09:39;;;;;;;26.50;14.00;;;;;;;11.33;77.79;101390.38;4980265;57;1143025;-73
2021/05/29 21:14:54;;;;;;;35.70;16.97;;;;;;;11.20;77.51;101397.45;5004034;57;1143126;-75
2021/05/29 21:25:22;;;;;;;42.97;24.10;;;;;;;11.07;78.21;101401.39;5003738;57;1142770;-75
2021/05/29 21:30:30;;;;;;;57.87;25.80;;;;;;;11.14;78.92;101400.52;5003788;57;1142959;-78
2021/05/29 21:35:35;;;;;;;74.63;27.77;;;;;;;11.19;79.02;101405.87;5003843;57;1142763;-75
2021/05/29 21:40:41;;;;;;;41.80;16.43;;;;;;;11.15;78.14;101407.52;5003782;57;1142883;-79
2021/05/29 21:50:58;;;;;;;34.47;17.47;;;;;;;10.88;78.21;101411.47;4920636;57;1142902;-79
2021/05/29 21:56:04;;;;;;;30.37;17.97;;;;;;;10.84;78.71;101415.28;5003539;57;1142580;-76
2021/05/29 22:01:25;;;;;;;26.40;13.43;;;;;;;10.83;79.08;101409.14;5003429;57;1142582;-72
2021/05/29 22:06:32;;;;;;;14.63;9.57;;;;;;;10.75;78.84;101416.70;5093520;57;1142787;-81
2021/05/29 22:32:36;;;;;;;7.63;4.10;;;;;;;10.66;79.91;101438.94;4935375;58;1139101;-78
2021/05/29 22:37:42;;;;;;;5.90;3.93;;;;;;;10.61;79.90;101443.66;5004088;58;1138373;-73
2021/05/29 22:42:48;;;;;;;12.33;4.83;;;;;;;10.61;80.12;101453.77;5015617;57;1138485;-77
2021/05/29 22:47:54;;;;;;;12.82;5.72;;;;;;;10.70;80.31;101445.23;5015266;57;1140467;-78
2021/05/29 22:53:00;;;;;;;11.57;6.23;;;;;;;10.75;80.26;101456.39;5015613;57;1140541;-77
2021/05/29 22:58:06;;;;;;;18.00;7.03;;;;;;;10.84;80.63;101460.27;5015427;57;1140654;-81
2021/05/29 23:03:13;;;;;;;5.37;3.57;;;;;;;10.77;80.25;101445.72;5015147;57;1140540;-72
2021/05/29 23:08:19;;;;;;;5.63;3.27;;;;;;;10.84;80.21;101460.27;5005939;57;1138472;-72
2021/05/29 23:13:25;;;;;;;4.97;3.70;;;;;;;10.87;80.16;101448.98;5004494;57;1138425;-73
2021/05/29 23:18:30;;;;;;;9.33;5.00;;;;;;;10.93;80.19;101456.55;5004384;58;1138632;-78
2021/05/29 23:23:37;;;;;;;8.80;5.43;;;;;;;10.95;80.13;101461.75;5004457;58;1138893;-78
2021/05/29 23:28:43;;;;;;;6.73;4.37;;;;;;;10.87;79.62;101466.66;5004495;58;1139204;-79
2021/05/29 23:33:48;;;;;;;8.18;4.33;;;;;;;10.72;79.19;101458.38;5004518;58;1139411;-74
2021/05/29 23:38:54;;;;;;;6.50;3.87;;;;;;;10.68;79.47;101464.36;5004411;58;1138760;-74
2021/05/29 23:44:00;;;;;;;3.83;3.00;;;;;;;10.68;79.39;101467.48;5004463;57;1138906;-81
2021/05/29 23:49:05;;;;;;;6.87;2.43;;;;;;;10.54;78.67;101478.42;5004095;58;1138503;-76
2021/05/29 23:54:11;;;;;;;2.10;1.90;;;;;;;10.31;78.36;101481.64;5004095;58;1138578;-75
2021/05/29 23:59:27;;;;;;;3.73;2.47;;;;;;;10.18;78.82;101486.84;5004217;58;1138385;-81
